Livermore, CA (94551)

10:19 PM PDT on September 02, 2015 (GMT -0700)
LFERC Field | | Change Station
CLOSE
Current Station
Personal Weather Station
Location: Livermore, CA
Elevation: 521 ft
Nearby Weather Stations

Elev 521 ft 37.73 °N, 121.74 °W | Updated 18 seconds ago

Clear
Clear
62.2 °F
Feels Like 62.2 °F
N
2.9
Wind Variable Wind from SW
Gusts 9.2 mph

Today
High -- | Low -- °F
--% Chance of Precip.
Yesterday
High -- | Low -- °F
Precip. -- in
6:37 AM 7:34 PM
Waning Gibbous, 74% visible
Pressure 29.90 in
Visibility 10.0 miles
Clouds Clear
Dew Point 51 °F
Humidity 67%
Rainfall 0.00 in
Snow Depth Not available.
UV 0 out of 12
Pollen 7.10 out of 12
Air Quality Not available.
Flu Activity Not available.
METAR KLVK 030453Z 23007KT 10SM CLR 19/13 A2991 RMK AO2 SLP124 T01890128
Pressure 29.90 in
Visibility 10.0 miles
Clouds Clear
Dew Point 51 °F
Humidity 67%
Rainfall 0.00 in
Snow Depth Not available.
UV 0 out of 12
Pollen 7.10 out of 12
Air Quality Not available.
Flu Activity Not available.
METAR KLVK 030453Z 23007KT 10SM CLR 19/13 A2991 RMK AO2 SLP124 T01890128

10-Day Weather Forecast

×

Almanac

Astronomy

Sep. 02, 2015 Rise Set
Actual Time
Civil Twilight
Nautical Twilight
Astronomical Twilight
Moon
Length of Visible Light
Length of Day
Tomorrow will be .
, % of the Moon is Illuminated

Today's Extremes

State Highs State Lows

Community

WunderPhotos

Upload Photos

1,851,914 photos uploaded!

WunderBlogs® & News

Nearby

Air Quality

  Air Quality AQ Index Pollutant
Not available.

Snow Depth

Station Depth Elevation

Earthquake Activity

City Distance Mag. Time & Date
Minimum magnitude displayed is 2.5.

Coastal Water Temperatures

Place Temperature

Stations

Nearby Weather Stations

Station Location Temp. Windchill Dew Point Humidity Wind Precip. Elev Updated Type